createdAt,value
2023-02-27T00:01:58.635Z,91.40
2023-02-27T00:07:00.430Z,91.60
2023-02-27T00:12:02.566Z,91.80
2023-02-27T00:17:04.567Z,91.90
2023-02-27T00:22:06.361Z,92.10
2023-02-27T00:27:08.170Z,92.30
2023-02-27T00:32:10.072Z,92.20
2023-02-27T00:37:11.999Z,92.30
2023-02-27T00:42:13.795Z,92.30
2023-02-27T00:47:15.632Z,92.20
2023-02-27T00:52:17.900Z,92.20
2023-02-27T00:57:20.070Z,92.10
2023-02-27T01:02:22.067Z,92.00
2023-02-27T01:07:24.163Z,92.00
2023-02-27T01:12:26.102Z,92.10
2023-02-27T01:17:27.912Z,92.00
2023-02-27T01:22:29.698Z,91.90
2023-02-27T01:27:31.579Z,92.10
2023-02-27T01:32:33.509Z,91.60
2023-02-27T01:37:35.316Z,91.50
2023-02-27T01:42:37.379Z,91.20
2023-02-27T01:47:48.672Z,91.10
2023-02-27T01:52:58.149Z,91.10
2023-02-27T01:58:00.370Z,91.00
2023-02-27T02:03:13.287Z,90.80
2023-02-27T02:08:18.090Z,90.60
2023-02-27T02:13:21.939Z,90.70
2023-02-27T02:18:36.114Z,90.50
2023-02-27T02:24:04.796Z,90.30
2023-02-27T02:29:09.535Z,90.30
2023-02-27T02:34:38.984Z,89.90
2023-02-27T02:40:24.604Z,89.90
2023-02-27T02:45:48.367Z,89.30
2023-02-27T02:51:05.615Z,88.90
2023-02-27T02:56:11.420Z,88.90
2023-02-27T03:01:18.546Z,88.80
2023-02-27T03:06:31.569Z,88.80
2023-02-27T03:11:37.045Z,88.80
2023-02-27T03:16:42.603Z,88.80
2023-02-27T03:21:47.807Z,88.80
2023-02-27T03:26:51.195Z,89.20
2023-02-27T03:32:07.578Z,88.90
2023-02-27T03:37:37.547Z,89.20
2023-02-27T03:42:46.572Z,89.60
2023-02-27T03:47:48.516Z,89.80
2023-02-27T03:52:50.590Z,90.00
2023-02-27T03:57:52.877Z,89.80
2023-02-27T04:02:56.676Z,89.60
2023-02-27T04:08:11.951Z,89.30
2023-02-27T04:13:29.680Z,89.50
2023-02-27T04:18:49.769Z,89.30
2023-02-27T04:24:14.314Z,88.30
2023-02-27T04:29:28.448Z,88.40
2023-02-27T04:34:47.953Z,88.20
2023-02-27T04:40:11.598Z,88.10
2023-02-27T04:45:16.515Z,88.00
2023-02-27T04:50:22.463Z,88.10
2023-02-27T04:55:28.319Z,87.90
2023-02-27T05:00:31.782Z,87.80
2023-02-27T05:05:35.223Z,88.00
2023-02-27T05:10:41.158Z,88.10
2023-02-27T05:15:47.858Z,87.90
2023-02-27T05:21:06.155Z,87.90
2023-02-27T05:26:16.718Z,87.90
2023-02-27T05:31:23.917Z,88.10
2023-02-27T05:36:34.339Z,88.10
2023-02-27T05:41:41.294Z,88.00
2023-02-27T05:47:13.480Z,88.20
2023-02-27T05:52:17.666Z,88.20
2023-02-27T05:57:25.815Z,88.40
2023-02-27T06:02:36.874Z,88.60
2023-02-27T06:07:39.285Z,88.70
2023-02-27T06:12:41.189Z,88.90
2023-02-27T06:17:42.987Z,89.10
2023-02-27T06:22:54.299Z,88.70
2023-02-27T06:27:56.211Z,88.50
2023-02-27T06:32:58.178Z,88.30
2023-02-27T06:38:00.051Z,87.00
2023-02-27T06:43:01.842Z,85.80
2023-02-27T06:48:03.712Z,84.80
2023-02-27T06:53:06.894Z,83.30
2023-02-27T06:58:08.696Z,81.40
2023-02-27T07:03:10.592Z,80.10
2023-02-27T07:08:12.408Z,79.20
2023-02-27T07:13:17.261Z,78.10
2023-02-27T07:18:20.313Z,76.20
2023-02-27T07:23:22.721Z,74.40
2023-02-27T07:28:24.558Z,73.60
2023-02-27T07:33:26.458Z,71.40
2023-02-27T07:38:28.967Z,71.40
2023-02-27T07:43:31.064Z,69.40
2023-02-27T07:48:33.594Z,68.20
2023-02-27T07:53:35.425Z,67.70
2023-02-27T07:58:37.208Z,67.50
2023-02-27T08:03:39.195Z,67.30
2023-02-27T08:08:41.113Z,68.00
2023-02-27T08:13:59.676Z,67.80
2023-02-27T08:19:02.827Z,69.00
2023-02-27T08:24:04.717Z,68.10
2023-02-27T08:29:06.517Z,68.60
2023-02-27T08:34:10.596Z,68.80
2023-02-27T08:39:12.808Z,69.90
2023-02-27T08:44:14.908Z,69.90
2023-02-27T08:49:21.628Z,70.20
2023-02-27T08:54:23.614Z,71.20
2023-02-27T08:59:28.187Z,71.30
2023-02-27T09:04:31.956Z,70.60
2023-02-27T09:09:33.840Z,70.90
2023-02-27T09:14:35.663Z,72.30
2023-02-27T09:19:37.504Z,72.20
2023-02-27T09:24:39.288Z,72.00
2023-02-27T09:29:41.240Z,71.70
2023-02-27T09:34:43.038Z,71.50
2023-02-27T09:39:46.353Z,71.30
2023-02-27T09:45:06.041Z,70.90
2023-02-27T09:50:44.328Z,69.30
2023-02-27T09:55:46.712Z,69.20
2023-02-27T10:00:58.904Z,70.20
2023-02-27T10:06:21.104Z,70.20
2023-02-27T10:11:30.863Z,67.50
2023-02-27T10:16:34.175Z,68.80
2023-02-27T10:21:41.523Z,68.40
2023-02-27T10:26:45.273Z,68.10
2023-02-27T10:31:50.257Z,66.50
2023-02-27T10:36:52.682Z,65.30
2023-02-27T10:41:54.732Z,66.90
2023-02-27T10:46:56.585Z,68.40
2023-02-27T10:52:15.450Z,66.90
2023-02-27T10:57:20.324Z,66.20
2023-02-27T11:02:28.475Z,65.60
2023-02-27T11:07:37.280Z,63.90
2023-02-27T11:12:40.266Z,65.40
2023-02-27T11:17:43.135Z,66.80
2023-02-27T11:22:45.183Z,69.10
2023-02-27T11:27:47.619Z,70.60
2023-02-27T11:32:51.316Z,71.20
2023-02-27T11:37:55.623Z,71.00
2023-02-27T11:43:02.761Z,70.80
2023-02-27T11:48:23.983Z,69.50
2023-02-27T11:53:28.618Z,69.30
2023-02-27T11:58:35.644Z,69.60
2023-02-27T12:03:41.159Z,67.90
2023-02-27T12:08:46.160Z,68.80
2023-02-27T12:13:53.672Z,67.70
2023-02-27T12:19:01.500Z,65.90
2023-02-27T12:24:40.659Z,65.70
2023-02-27T12:29:48.343Z,65.80
2023-02-27T12:34:53.060Z,64.50
2023-02-27T12:39:56.591Z,64.60
2023-02-27T12:45:21.591Z,63.90
2023-02-27T12:50:25.076Z,62.20
2023-02-27T12:55:29.048Z,63.20
2023-02-27T13:01:00.948Z,65.50
2023-02-27T13:06:19.873Z,66.40
2023-02-27T13:11:43.476Z,66.10
2023-02-27T13:16:51.225Z,65.70
2023-02-27T13:22:07.318Z,65.60
2023-02-27T13:27:25.183Z,66.60
2023-02-27T13:32:44.138Z,67.20
2023-02-27T13:37:56.003Z,68.10
2023-02-27T13:43:03.679Z,67.00
2023-02-27T13:48:34.183Z,65.30
2023-02-27T13:53:36.074Z,66.70
2023-02-27T13:58:38.018Z,64.70
2023-02-27T14:03:40.391Z,64.30
2023-02-27T14:08:55.686Z,64.90
2023-02-27T14:14:03.315Z,65.00
2023-02-27T14:19:16.180Z,65.20
2023-02-27T14:24:28.875Z,65.90
2023-02-27T14:29:33.522Z,67.70
2023-02-27T14:34:35.947Z,67.70
2023-02-27T14:39:37.927Z,67.40
2023-02-27T14:44:43.568Z,66.70
2023-02-27T14:49:47.324Z,66.90
2023-02-27T14:54:49.930Z,67.40
2023-02-27T14:59:53.150Z,66.40
2023-02-27T15:05:15.880Z,65.90
2023-02-27T15:10:25.128Z,65.80
2023-02-27T15:15:27.287Z,66.10
2023-02-27T15:20:34.564Z,65.70
2023-02-27T15:25:38.407Z,64.50
2023-02-27T15:30:40.376Z,64.70
2023-02-27T15:35:43.971Z,65.70
2023-02-27T15:40:45.838Z,66.10
2023-02-27T15:45:48.194Z,65.30
2023-02-27T15:50:57.320Z,66.30
2023-02-27T15:56:01.352Z,67.10
2023-02-27T16:01:06.490Z,67.30
2023-02-27T16:06:23.430Z,67.00
2023-02-27T16:11:30.313Z,67.60
2023-02-27T16:16:38.743Z,67.50
2023-02-27T16:22:06.777Z,68.30
2023-02-27T16:27:35.046Z,67.60
2023-02-27T16:32:41.445Z,68.60
2023-02-27T16:37:44.963Z,69.40
2023-02-27T16:42:46.857Z,71.00
2023-02-27T16:47:50.036Z,72.50
2023-02-27T16:52:51.897Z,73.60
2023-02-27T16:57:54.057Z,74.10
2023-02-27T17:02:55.899Z,74.60
2023-02-27T17:07:57.770Z,74.80
2023-02-27T17:12:59.658Z,75.50
2023-02-27T17:18:02.039Z,75.90
2023-02-27T17:23:03.977Z,76.50
2023-02-27T17:28:06.342Z,76.90
2023-02-27T17:33:08.255Z,77.60
2023-02-27T17:38:10.160Z,77.60
2023-02-27T17:43:12.025Z,78.40
2023-02-27T17:48:13.932Z,79.10
2023-02-27T17:53:15.829Z,79.30
2023-02-27T17:58:18.773Z,79.70
2023-02-27T18:03:20.624Z,79.80
2023-02-27T18:08:22.638Z,80.10
2023-02-27T18:13:27.249Z,80.60
2023-02-27T18:18:29.202Z,80.70
2023-02-27T18:23:31.787Z,81.00
2023-02-27T18:28:34.216Z,80.50
2023-02-27T18:33:36.257Z,80.60
2023-02-27T18:38:38.125Z,80.60
2023-02-27T18:43:41.007Z,81.20
2023-02-27T18:48:46.225Z,81.40
2023-02-27T18:53:49.381Z,81.40
2023-02-27T18:58:51.919Z,82.00
2023-02-27T19:03:56.320Z,81.60
2023-02-27T19:08:58.330Z,82.00
2023-02-27T19:14:01.134Z,82.80
2023-02-27T19:19:04.897Z,82.80
2023-02-27T19:24:08.000Z,83.10
2023-02-27T19:29:10.929Z,82.90
2023-02-27T19:34:13.024Z,83.50
2023-02-27T19:39:15.091Z,83.60
2023-02-27T19:44:17.143Z,83.40
2023-02-27T19:49:20.455Z,83.80
2023-02-27T19:54:22.316Z,83.40
2023-02-27T19:59:24.685Z,83.70
2023-02-27T20:04:26.665Z,84.50
2023-02-27T20:09:28.651Z,83.90
2023-02-27T20:14:32.722Z,84.60
2023-02-27T20:19:36.444Z,84.30
2023-02-27T20:24:38.434Z,84.50
2023-02-27T20:29:40.772Z,84.60
2023-02-27T20:34:43.765Z,85.00
2023-02-27T20:39:45.741Z,85.50
2023-02-27T20:44:48.626Z,85.50
2023-02-27T20:49:50.611Z,86.00
2023-02-27T20:54:52.436Z,85.60
2023-02-27T20:59:54.252Z,85.60
2023-02-27T21:04:57.524Z,85.60
2023-02-27T21:09:59.519Z,85.50
2023-02-27T21:15:01.425Z,86.00
2023-02-27T21:20:07.277Z,85.60
2023-02-27T21:25:09.445Z,85.60
2023-02-27T21:30:12.183Z,85.90
2023-02-27T21:35:14.795Z,86.10
2023-02-27T21:40:16.853Z,85.80
2023-02-27T21:45:20.235Z,86.50
2023-02-27T21:50:23.072Z,86.20
2023-02-27T21:55:24.881Z,86.80
2023-02-27T22:00:29.253Z,86.40
2023-02-27T22:05:31.075Z,86.40
2023-02-27T22:10:36.178Z,86.30
2023-02-27T22:15:38.686Z,86.50
2023-02-27T22:20:40.861Z,86.30
2023-02-27T22:25:42.824Z,86.50
2023-02-27T22:30:45.865Z,86.40
2023-02-27T22:35:47.751Z,86.50
2023-02-27T22:40:49.633Z,87.00
2023-02-27T22:45:51.429Z,86.70
2023-02-27T22:50:57.812Z,86.90
2023-02-27T22:55:59.724Z,87.40
2023-02-27T23:01:01.800Z,87.20
2023-02-27T23:06:05.065Z,87.20
2023-02-27T23:11:06.984Z,87.20
2023-02-27T23:16:13.424Z,87.40
2023-02-27T23:21:17.013Z,87.70
2023-02-27T23:26:18.865Z,87.40
2023-02-27T23:31:20.870Z,87.30
2023-02-27T23:36:22.750Z,87.10
2023-02-27T23:41:24.583Z,87.10
2023-02-27T23:46:30.283Z,87.30
2023-02-27T23:51:33.385Z,87.90
2023-02-27T23:56:35.460Z,88.30
